createdAt,value
2016-03-27T00:00:57.267Z,0
2016-03-27T00:01:57.238Z,0
2016-03-27T00:02:57.225Z,0
2016-03-27T00:03:57.228Z,0
2016-03-27T00:04:57.200Z,0
2016-03-27T00:05:57.202Z,0
2016-03-27T00:06:57.174Z,0
2016-03-27T00:07:57.177Z,0
2016-03-27T00:08:57.149Z,0
2016-03-27T00:09:57.151Z,0
2016-03-27T00:10:57.138Z,0
2016-03-27T00:11:57.125Z,0
2016-03-27T00:12:57.127Z,0
2016-03-27T00:13:57.115Z,0
2016-03-27T00:14:57.085Z,0
2016-03-27T00:15:57.073Z,0
2016-03-27T00:16:57.059Z,0
2016-03-27T00:17:57.042Z,0
2016-03-27T00:18:57.014Z,0
2016-03-27T00:19:56.986Z,0
2016-03-27T00:20:56.958Z,0
2016-03-27T00:21:56.930Z,0
2016-03-27T00:22:56.905Z,0
2016-03-27T00:23:56.887Z,0
2016-03-27T00:24:56.885Z,0
2016-03-27T00:25:56.851Z,0
2016-03-27T00:26:56.832Z,0
2016-03-27T00:27:56.831Z,0
2016-03-27T00:28:56.815Z,0
2016-03-27T00:29:56.801Z,0
2016-03-27T00:30:56.769Z,0
2016-03-27T00:31:56.755Z,0
2016-03-27T00:32:56.739Z,0
2016-03-27T00:33:56.741Z,0
2016-03-27T00:34:56.712Z,0
2016-03-27T00:35:56.698Z,0
2016-03-27T00:36:56.699Z,0
2016-03-27T00:37:56.671Z,0
2016-03-27T00:38:56.658Z,0
2016-03-27T00:39:56.646Z,0
2016-03-27T00:40:56.648Z,0
2016-03-27T00:41:56.620Z,0
2016-03-27T00:42:56.606Z,0
2016-03-27T00:43:56.610Z,0
2016-03-27T00:44:56.581Z,0
2016-03-27T00:45:56.567Z,0
2016-03-27T00:46:56.570Z,0
2016-03-27T00:47:56.557Z,0
2016-03-27T00:48:56.560Z,0
2016-03-27T00:49:56.531Z,0
2016-03-27T00:50:56.519Z,0
2016-03-27T00:51:56.506Z,0
2016-03-27T00:52:56.478Z,0
2016-03-27T00:53:56.480Z,0
2016-03-27T00:54:56.466Z,0
2016-03-27T00:55:56.439Z,0
2016-03-27T00:56:56.441Z,0
2016-03-27T00:57:56.428Z,0
2016-03-27T00:58:56.416Z,0
2016-03-27T00:59:56.418Z,0
2016-03-27T01:00:56.389Z,0
2016-03-27T01:01:56.377Z,0
2016-03-27T01:02:56.363Z,0
2016-03-27T01:03:56.350Z,0
2016-03-27T01:04:56.338Z,0
2016-03-27T01:05:56.324Z,0
2016-03-27T01:06:56.156Z,0
2016-03-27T01:07:56.303Z,0
2016-03-27T01:08:56.274Z,0
2016-03-27T01:09:56.277Z,0
2016-03-27T01:10:56.264Z,0
2016-03-27T01:11:56.453Z,0
2016-03-27T01:12:56.239Z,0
2016-03-27T01:13:56.241Z,0
2016-03-27T01:14:56.211Z,0
2016-03-27T01:15:56.215Z,0
2016-03-27T01:16:56.405Z,0
2016-03-27T01:17:56.157Z,0
2016-03-27T01:18:56.145Z,0
2016-03-27T01:19:56.132Z,0
2016-03-27T01:20:56.135Z,0
2016-03-27T01:21:56.122Z,0
2016-03-27T01:22:56.108Z,0
2016-03-27T01:23:56.096Z,0
2016-03-27T01:24:56.099Z,0
2016-03-27T01:25:56.070Z,0
2016-03-27T01:26:56.072Z,0
2016-03-27T01:27:56.060Z,0
2016-03-27T01:28:56.046Z,0
2016-03-27T01:29:56.034Z,0
2016-03-27T01:30:56.005Z,0
2016-03-27T01:31:56.023Z,0
2016-03-27T01:32:55.995Z,0
2016-03-27T01:33:56.185Z,0
2016-03-27T01:34:55.969Z,0
2016-03-27T01:35:55.940Z,0
2016-03-27T01:36:55.943Z,0
2016-03-27T01:37:55.930Z,0
2016-03-27T01:38:55.917Z,0
2016-03-27T01:39:55.904Z,0
2016-03-27T01:40:55.892Z,0
2016-03-27T01:41:55.879Z,0
2016-03-27T01:42:55.756Z,0
2016-03-27T01:43:55.868Z,0
2016-03-27T01:44:55.855Z,0
2016-03-27T01:45:56.045Z,0
2016-03-27T01:46:55.923Z,0
2016-03-27T01:47:55.816Z,0
2016-03-27T01:48:56.647Z,0
2016-03-27T01:49:55.791Z,0
2016-03-27T01:50:55.778Z,0
2016-03-27T01:51:55.749Z,0
2016-03-27T01:52:55.752Z,0
2016-03-27T01:53:55.739Z,0
2016-03-27T01:54:56.226Z,0
2016-03-27T01:55:55.713Z,0
2016-03-27T01:56:55.716Z,0
2016-03-27T01:57:55.702Z,0
2016-03-27T01:58:55.690Z,0
2016-03-27T01:59:55.677Z,0
2016-03-27T02:00:55.648Z,0
2016-03-27T02:01:55.838Z,0
2016-03-27T02:02:55.638Z,0
2016-03-27T02:03:55.625Z,0
2016-03-27T02:04:55.613Z,0
2016-03-27T02:05:55.599Z,0
2016-03-27T02:06:55.595Z,0
2016-03-27T02:07:56.257Z,0
2016-03-27T02:08:55.600Z,0
2016-03-27T02:09:55.602Z,0
2016-03-27T02:10:55.897Z,0
2016-03-27T02:11:55.712Z,0
2016-03-27T02:12:55.527Z,0
2016-03-27T02:13:55.515Z,0
2016-03-27T02:14:55.501Z,0
2016-03-27T02:15:55.488Z,0
2016-03-27T02:16:55.334Z,0
2016-03-27T02:17:55.462Z,0
2016-03-27T02:18:55.465Z,0
2016-03-27T02:19:55.453Z,0
2016-03-27T02:20:55.439Z,0
2016-03-27T02:21:55.427Z,0
2016-03-27T02:22:55.414Z,0
2016-03-27T02:23:55.400Z,0
2016-03-27T02:24:55.371Z,0
2016-03-27T02:25:55.374Z,0
2016-03-27T02:26:55.346Z,0
2016-03-27T02:27:55.349Z,0
2016-03-27T02:28:55.336Z,0
2016-03-27T02:29:55.307Z,0
2016-03-27T02:30:55.326Z,0
2016-03-27T02:31:55.204Z,0
2016-03-27T02:32:55.284Z,0
2016-03-27T02:33:55.271Z,0
2016-03-27T02:34:55.257Z,0
2016-03-27T02:35:55.246Z,0
2016-03-27T02:36:55.248Z,0
2016-03-27T02:37:55.220Z,0
2016-03-27T02:38:55.301Z,0
2016-03-27T02:39:55.225Z,0
2016-03-27T02:40:55.212Z,0
2016-03-27T02:41:55.199Z,0
2016-03-27T02:42:55.186Z,0
2016-03-27T02:43:55.157Z,0
2016-03-27T02:44:55.144Z,0
2016-03-27T02:45:55.147Z,0
2016-03-27T02:46:55.306Z,0
2016-03-27T02:47:55.106Z,0
2016-03-27T02:48:55.108Z,0
2016-03-27T02:49:55.095Z,0
2016-03-27T02:50:55.067Z,0
2016-03-27T02:51:55.053Z,0
2016-03-27T02:52:55.056Z,0
2016-03-27T02:53:55.059Z,0
2016-03-27T02:54:55.030Z,0
2016-03-27T02:55:55.033Z,0
2016-03-27T02:56:55.036Z,0
2016-03-27T02:57:55.007Z,0
2016-03-27T02:58:54.995Z,0
2016-03-27T02:59:54.966Z,0
2016-03-27T03:00:54.952Z,0
2016-03-27T03:01:54.956Z,0
2016-03-27T03:02:54.927Z,0
2016-03-27T03:03:54.930Z,0
2016-03-27T03:04:54.918Z,0
2016-03-27T03:05:54.904Z,0
2016-03-27T03:06:54.907Z,0
2016-03-27T03:07:54.894Z,0
2016-03-27T03:08:54.881Z,0
2016-03-27T03:09:54.883Z,0
2016-03-27T03:10:54.855Z,0
2016-03-27T03:11:54.842Z,0
2016-03-27T03:12:54.829Z,0
2016-03-27T03:13:54.817Z,0
2016-03-27T03:14:54.803Z,0
2016-03-27T03:15:54.790Z,0
2016-03-27T03:16:54.793Z,0
2016-03-27T03:17:54.780Z,0
2016-03-27T03:18:54.751Z,0
2016-03-27T03:19:54.739Z,0
2016-03-27T03:20:54.741Z,0
2016-03-27T03:21:54.729Z,0
2016-03-27T03:22:54.716Z,0
2016-03-27T03:23:54.718Z,0
2016-03-27T03:24:54.706Z,0
2016-03-27T03:25:54.692Z,0
2016-03-27T03:26:54.680Z,0
2016-03-27T03:27:54.650Z,0
2016-03-27T03:28:54.653Z,0
2016-03-27T03:29:54.624Z,0
2016-03-27T03:30:54.613Z,0
2016-03-27T03:31:54.615Z,0
2016-03-27T03:32:54.601Z,0
2016-03-27T03:33:54.589Z,0
2016-03-27T03:34:54.576Z,0
2016-03-27T03:35:54.562Z,0
2016-03-27T03:36:54.566Z,0
2016-03-27T03:37:54.552Z,0
2016-03-27T03:38:54.540Z,0
2016-03-27T03:39:54.527Z,0
2016-03-27T03:40:54.514Z,0
2016-03-27T03:41:54.501Z,0
2016-03-27T03:42:54.488Z,0
2016-03-27T03:43:54.459Z,0
2016-03-27T03:44:54.462Z,0
2016-03-27T03:45:54.449Z,0
2016-03-27T03:46:54.436Z,0
2016-03-27T03:47:54.439Z,0
2016-03-27T03:48:54.426Z,0
2016-03-27T03:49:54.428Z,0
2016-03-27T03:50:54.400Z,0
2016-03-27T03:51:54.387Z,0
2016-03-27T03:52:54.374Z,0
2016-03-27T03:53:54.361Z,0
2016-03-27T03:54:54.348Z,0
2016-03-27T03:55:54.319Z,0
2016-03-27T03:56:54.323Z,0
2016-03-27T03:57:54.294Z,0
2016-03-27T03:58:54.297Z,0
2016-03-27T03:59:54.268Z,0
2016-03-27T04:00:54.271Z,0
2016-03-27T04:01:54.274Z,0
2016-03-27T04:02:54.244Z,0
2016-03-27T04:03:54.232Z,0
2016-03-27T04:04:54.235Z,0
2016-03-27T04:05:54.207Z,0
2016-03-27T04:06:54.209Z,0
2016-03-27T04:07:54.214Z,0
2016-03-27T04:08:54.184Z,0
2016-03-27T04:09:54.172Z,0
2016-03-27T04:10:54.143Z,0
2016-03-27T04:11:54.145Z,0
2016-03-27T04:12:54.117Z,0
2016-03-27T04:13:54.105Z,0
2016-03-27T04:14:54.108Z,0
2016-03-27T04:15:54.078Z,0
2016-03-27T04:16:54.081Z,0
2016-03-27T04:17:54.069Z,0
2016-03-27T04:18:54.056Z,0
2016-03-27T04:19:54.058Z,0
2016-03-27T04:20:54.044Z,0
2016-03-27T04:21:54.048Z,0
2016-03-27T04:22:54.004Z,0
2016-03-27T04:23:54.007Z,0
2016-03-27T04:24:53.963Z,0
2016-03-27T04:25:53.215Z,0
2016-03-27T04:26:53.952Z,0
2016-03-27T04:27:53.924Z,0
2016-03-27T04:28:53.910Z,0
2016-03-27T04:29:53.897Z,0
2016-03-27T04:30:53.901Z,0
2016-03-27T04:31:53.903Z,0
2016-03-27T04:32:53.859Z,0
2016-03-27T04:33:53.862Z,0
2016-03-27T04:34:53.864Z,0
2016-03-27T04:35:53.835Z,0
2016-03-27T04:36:53.823Z,0
2016-03-27T04:37:53.810Z,0
2016-03-27T04:38:53.797Z,0
2016-03-27T04:39:53.784Z,0
2016-03-27T04:40:53.755Z,0
2016-03-27T04:41:53.743Z,0
2016-03-27T04:42:53.745Z,0
2016-03-27T04:43:53.731Z,0
2016-03-27T04:44:53.703Z,0
2016-03-27T04:45:53.691Z,0
2016-03-27T04:46:53.678Z,0
2016-03-27T04:47:53.524Z,0
2016-03-27T04:48:53.667Z,0
2016-03-27T04:49:53.670Z,0
2016-03-27T04:50:53.657Z,0
2016-03-27T04:51:53.628Z,0
2016-03-27T04:52:53.631Z,0
2016-03-27T04:53:53.618Z,0
2016-03-27T04:54:53.605Z,0
2016-03-27T04:55:53.577Z,0
2016-03-27T04:56:53.579Z,0
2016-03-27T04:57:53.566Z,0
2016-03-27T04:58:53.554Z,0
2016-03-27T04:59:53.524Z,0
2016-03-27T05:00:53.512Z,0
2016-03-27T05:01:53.499Z,4
2016-03-27T05:02:53.486Z,4
2016-03-27T05:03:53.473Z,4
2016-03-27T05:04:53.476Z,0
2016-03-27T05:05:53.447Z,4
2016-03-27T05:06:53.451Z,4
2016-03-27T05:07:53.421Z,4
2016-03-27T05:08:53.409Z,4
2016-03-27T05:09:53.396Z,8
2016-03-27T05:10:53.383Z,4
2016-03-27T05:11:53.370Z,12
2016-03-27T05:12:53.356Z,12
2016-03-27T05:13:53.344Z,16
2016-03-27T05:14:53.346Z,16
2016-03-27T05:15:53.334Z,20
2016-03-27T05:16:53.305Z,24
2016-03-27T05:17:53.292Z,28
2016-03-27T05:18:53.280Z,36
2016-03-27T05:19:53.282Z,36
2016-03-27T05:20:53.253Z,40
2016-03-27T05:21:53.241Z,40
2016-03-27T05:22:53.055Z,44
2016-03-27T05:23:53.199Z,56
2016-03-27T05:24:53.202Z,68
2016-03-27T05:25:53.173Z,88
2016-03-27T05:26:53.161Z,100
2016-03-27T05:27:53.163Z,108
2016-03-27T05:28:53.134Z,112
2016-03-27T05:29:53.106Z,132
2016-03-27T05:30:53.108Z,168
2016-03-27T05:31:53.095Z,184
2016-03-27T05:32:53.067Z,184
2016-03-27T05:33:53.085Z,196
2016-03-27T05:34:53.057Z,232
2016-03-27T05:35:53.044Z,276
2016-03-27T05:36:53.031Z,332
2016-03-27T05:37:53.017Z,356
2016-03-27T05:38:52.990Z,408
2016-03-27T05:39:52.976Z,424
2016-03-27T05:40:52.963Z,524
2016-03-27T05:41:52.951Z,604
2016-03-27T05:42:52.953Z,524
2016-03-27T05:43:52.925Z,436
2016-03-27T05:44:52.912Z,484
2016-03-27T05:45:52.898Z,404
2016-03-27T05:46:52.886Z,436
2016-03-27T05:47:52.857Z,568
2016-03-27T05:48:52.860Z,656
2016-03-27T05:49:52.691Z,548
2016-03-27T05:50:52.850Z,560
2016-03-27T05:51:52.821Z,640
2016-03-27T05:52:52.809Z,688
2016-03-27T05:53:52.780Z,700
2016-03-27T05:54:52.782Z,596
2016-03-27T05:55:52.754Z,604
2016-03-27T05:56:52.741Z,616
2016-03-27T05:57:52.727Z,692
2016-03-27T05:58:52.699Z,728
2016-03-27T05:59:52.702Z,724
2016-03-27T06:00:52.813Z,812
2016-03-27T06:01:52.677Z,936
2016-03-27T06:02:52.648Z,1008
2016-03-27T06:03:52.650Z,988
2016-03-27T06:04:52.638Z,1084
2016-03-27T06:05:52.624Z,1244
2016-03-27T06:06:52.611Z,1252
2016-03-27T06:07:52.599Z,1328
2016-03-27T06:08:52.570Z,1400
2016-03-27T06:09:52.557Z,1428
2016-03-27T06:10:52.545Z,1456
2016-03-27T06:11:52.531Z,1372
2016-03-27T06:12:52.518Z,1472
2016-03-27T06:13:52.506Z,1528
2016-03-27T06:14:52.492Z,1684
2016-03-27T06:15:52.478Z,1836
2016-03-27T06:16:52.467Z,1912
2016-03-27T06:17:52.453Z,2000
2016-03-27T06:18:52.441Z,2072
2016-03-27T06:19:52.428Z,2204
2016-03-27T06:20:52.399Z,2268
2016-03-27T06:21:52.386Z,2176
2016-03-27T06:22:52.373Z,2464
2016-03-27T06:23:52.360Z,2688
2016-03-27T06:24:52.347Z,2516
2016-03-27T06:25:52.335Z,2584
2016-03-27T06:26:52.305Z,2708
2016-03-27T06:27:52.294Z,2644
2016-03-27T06:28:52.264Z,2448
2016-03-27T06:29:52.266Z,2324
2016-03-27T06:30:52.255Z,2332
2016-03-27T06:31:52.241Z,2260
2016-03-27T06:32:52.353Z,2208
2016-03-27T06:33:52.216Z,1992
2016-03-27T06:34:52.202Z,1912
2016-03-27T06:35:52.174Z,1924
2016-03-27T06:36:52.160Z,1908
2016-03-27T06:37:52.148Z,1912
2016-03-27T06:38:52.135Z,2064
2016-03-27T06:39:52.137Z,2028
2016-03-27T06:40:52.109Z,2000
2016-03-27T06:41:52.081Z,2024
2016-03-27T06:42:52.083Z,2116
2016-03-27T06:43:52.055Z,1956
2016-03-27T06:44:52.042Z,1980
2016-03-27T06:45:52.045Z,2100
2016-03-27T06:46:52.031Z,2320
2016-03-27T06:47:52.019Z,2660
2016-03-27T06:48:51.865Z,2880
2016-03-27T06:49:51.993Z,3024
2016-03-27T06:50:51.964Z,2860
2016-03-27T06:51:51.967Z,2352
2016-03-27T06:52:51.938Z,1716
2016-03-27T06:53:51.925Z,1860
2016-03-27T06:54:51.912Z,2084
2016-03-27T06:55:51.884Z,2328
2016-03-27T06:56:51.886Z,2360
2016-03-27T06:57:51.873Z,2460
2016-03-27T06:58:51.845Z,2140
2016-03-27T06:59:51.832Z,1908
2016-03-27T07:00:51.835Z,2792
2016-03-27T07:01:51.822Z,2840
2016-03-27T07:02:51.777Z,2228
2016-03-27T07:03:51.796Z,3012
2016-03-27T07:04:51.768Z,3164
2016-03-27T07:05:51.754Z,3156
2016-03-27T07:06:51.741Z,2692
2016-03-27T07:07:51.713Z,3164
2016-03-27T07:08:51.701Z,4560
2016-03-27T07:09:51.687Z,4732
2016-03-27T07:10:51.673Z,4644
2016-03-27T07:11:51.662Z,3916
2016-03-27T07:12:51.648Z,4340
2016-03-27T07:13:51.634Z,4876
2016-03-27T07:14:51.623Z,4644
2016-03-27T07:15:51.609Z,3948
2016-03-27T07:16:51.597Z,3944
2016-03-27T07:17:51.756Z,3856
2016-03-27T07:18:51.555Z,4948
2016-03-27T07:19:51.542Z,5432
2016-03-27T07:20:51.529Z,6108
2016-03-27T07:21:51.516Z,6644
2016-03-27T07:22:51.503Z,7064
2016-03-27T07:23:51.491Z,8092
2016-03-27T07:24:51.478Z,8764
2016-03-27T07:25:51.449Z,8968
2016-03-27T07:26:51.452Z,8872
2016-03-27T07:27:51.423Z,8100
2016-03-27T07:28:51.270Z,7140
2016-03-27T07:29:51.412Z,6428
2016-03-27T07:30:51.400Z,5788
2016-03-27T07:31:51.387Z,5560
2016-03-27T07:32:51.468Z,5680
2016-03-27T07:33:51.346Z,5524
2016-03-27T07:34:51.316Z,5272
2016-03-27T07:35:51.304Z,5332
2016-03-27T07:36:51.307Z,5652
2016-03-27T07:37:51.293Z,5784
2016-03-27T07:38:51.281Z,6072
2016-03-27T07:39:51.252Z,7320
2016-03-27T07:40:51.239Z,8948
2016-03-27T07:41:51.227Z,9808
2016-03-27T07:42:51.213Z,9456
2016-03-27T07:43:51.215Z,8776
2016-03-27T07:44:51.204Z,8516
2016-03-27T07:45:51.190Z,8192
2016-03-27T07:46:51.161Z,8284
2016-03-27T07:47:51.539Z,8828
2016-03-27T07:48:51.136Z,9632
2016-03-27T07:49:51.107Z,10620
2016-03-27T07:50:51.094Z,11540
2016-03-27T07:51:51.097Z,12596
2016-03-27T07:52:51.084Z,13792
2016-03-27T07:53:51.055Z,14484
2016-03-27T07:54:51.042Z,14300
2016-03-27T07:55:51.045Z,14004
2016-03-27T07:56:51.047Z,13904
2016-03-27T07:57:51.020Z,13832
2016-03-27T07:58:51.006Z,13996
2016-03-27T07:59:50.993Z,14544
2016-03-27T08:00:50.966Z,15092
2016-03-27T08:01:50.952Z,15804
2016-03-27T08:02:51.095Z,16908
2016-03-27T08:03:50.926Z,16916
2016-03-27T08:04:50.960Z,15828
2016-03-27T08:05:50.899Z,15564
2016-03-27T08:06:50.888Z,16376
2016-03-27T08:07:50.874Z,17492
2016-03-27T08:08:50.861Z,18124
2016-03-27T08:09:50.833Z,18216
2016-03-27T08:10:50.835Z,18280
2016-03-27T08:11:50.822Z,18832
2016-03-27T08:12:50.810Z,19616
2016-03-27T08:13:50.812Z,20256
2016-03-27T08:14:50.784Z,20832
2016-03-27T08:15:50.756Z,20096
2016-03-27T08:16:50.758Z,16632
2016-03-27T08:17:50.745Z,15812
2016-03-27T08:18:50.717Z,19112
2016-03-27T08:19:50.703Z,21824
2016-03-27T08:20:50.706Z,33056
2016-03-27T08:21:50.709Z,47232
2016-03-27T08:22:50.681Z,48256
2016-03-27T08:23:50.667Z,42688
2016-03-27T08:24:50.670Z,25440
2016-03-27T08:25:50.657Z,24320
2016-03-27T08:26:50.488Z,20320
2016-03-27T08:27:50.631Z,16728
2016-03-27T08:28:50.602Z,16128
2016-03-27T08:29:51.402Z,18920
2016-03-27T08:30:50.577Z,29248
2016-03-27T08:31:50.580Z,38112
2016-03-27T08:32:50.566Z,45536
2016-03-27T08:33:50.569Z,31296
2016-03-27T08:34:50.541Z,33760
2016-03-27T08:35:50.527Z,24096
2016-03-27T08:36:50.515Z,21888
2016-03-27T08:37:50.518Z,21280
2016-03-27T08:38:50.504Z,21056
2016-03-27T08:39:50.508Z,20832
2016-03-27T08:40:50.494Z,21408
2016-03-27T08:41:50.481Z,22432
2016-03-27T08:42:50.453Z,23680
2016-03-27T08:43:50.456Z,24896
2016-03-27T08:44:50.442Z,24992
2016-03-27T08:45:50.429Z,23840
2016-03-27T08:46:50.417Z,25280
2016-03-27T08:47:50.419Z,25280
2016-03-27T08:48:50.391Z,25728
2016-03-27T08:49:50.393Z,26848
2016-03-27T08:50:50.364Z,27712
2016-03-27T08:51:50.353Z,27232
2016-03-27T08:52:50.370Z,29088
2016-03-27T08:53:50.357Z,28896
2016-03-27T08:54:50.345Z,28832
2016-03-27T08:55:50.300Z,31008
2016-03-27T08:56:50.303Z,27616
2016-03-27T08:57:50.290Z,24032
2016-03-27T08:58:50.277Z,20672
2016-03-27T08:59:50.124Z,22016
2016-03-27T09:00:50.469Z,24544
2016-03-27T09:01:50.238Z,26688
2016-03-27T09:02:50.241Z,27104
2016-03-27T09:03:50.212Z,26976
2016-03-27T09:04:50.216Z,29088
2016-03-27T09:05:50.202Z,30432
2016-03-27T09:06:50.189Z,36224
2016-03-27T09:07:50.205Z,33792
2016-03-27T09:08:50.177Z,37312
2016-03-27T09:09:50.367Z,34272
2016-03-27T09:10:50.151Z,27776
2016-03-27T09:11:50.154Z,30272
2016-03-27T09:12:50.125Z,29248
2016-03-27T09:13:50.160Z,30400
2016-03-27T09:14:50.099Z,34432
2016-03-27T09:15:50.118Z,33056
2016-03-27T09:16:50.089Z,33728
2016-03-27T09:17:50.060Z,35200
2016-03-27T09:18:50.423Z,38656
2016-03-27T09:19:50.051Z,38496
2016-03-27T09:20:50.084Z,38624
2016-03-27T09:21:50.025Z,38272
2016-03-27T09:22:50.246Z,38784
2016-03-27T09:23:50.025Z,37568
2016-03-27T09:24:50.001Z,37728
2016-03-27T09:25:49.959Z,39104
2016-03-27T09:26:49.950Z,42528
2016-03-27T09:27:49.910Z,47104
2016-03-27T09:28:49.889Z,39264
2016-03-27T09:29:49.888Z,35968
2016-03-27T09:30:49.886Z,44512
2016-03-27T09:31:50.102Z,42848
2016-03-27T09:32:49.914Z,33792
2016-03-27T09:33:49.835Z,33440
2016-03-27T09:34:49.820Z,34624
2016-03-27T09:35:49.805Z,37280
2016-03-27T09:36:49.807Z,31008
2016-03-27T09:37:49.793Z,31232
2016-03-27T09:38:49.779Z,28576
2016-03-27T09:39:49.781Z,29632
2016-03-27T09:40:49.752Z,29952
2016-03-27T09:41:49.755Z,30752
2016-03-27T09:42:49.740Z,33024
2016-03-27T09:43:49.727Z,33568
2016-03-27T09:44:49.730Z,31424
2016-03-27T09:45:49.716Z,35776
2016-03-27T09:46:49.703Z,41920
2016-03-27T09:47:49.690Z,50080
2016-03-27T09:48:49.676Z,47200
2016-03-27T09:49:49.679Z,36512
2016-03-27T09:50:49.854Z,32896
2016-03-27T09:51:49.654Z,31840
2016-03-27T09:52:49.640Z,31968
2016-03-27T09:53:49.643Z,32416
2016-03-27T09:54:49.645Z,35488
2016-03-27T09:55:49.618Z,32224
2016-03-27T09:56:49.604Z,31616
2016-03-27T09:57:49.591Z,30880
2016-03-27T09:58:49.595Z,36640
2016-03-27T09:59:49.581Z,39552
2016-03-27T10:00:49.568Z,40128
2016-03-27T10:01:49.572Z,32032
2016-03-27T10:02:49.558Z,34112
2016-03-27T10:03:49.748Z,27264
2016-03-27T10:04:49.533Z,29440
2016-03-27T10:05:49.535Z,29184
2016-03-27T10:06:49.538Z,41600
2016-03-27T10:07:49.509Z,54496
2016-03-27T10:08:50.355Z,39680
2016-03-27T10:09:49.499Z,28544
2016-03-27T10:10:49.486Z,48288
2016-03-27T10:11:49.473Z,74880
2016-03-27T10:12:49.476Z,31104
2016-03-27T10:13:49.463Z,28992
2016-03-27T10:14:49.840Z,36960
2016-03-27T10:15:49.437Z,32608
2016-03-27T10:16:49.440Z,34528
2016-03-27T10:17:49.426Z,38592
2016-03-27T10:18:49.413Z,53312
2016-03-27T10:19:49.416Z,47328
2016-03-27T10:20:49.247Z,44320
2016-03-27T10:21:49.391Z,33504
2016-03-27T10:22:49.409Z,31232
2016-03-27T10:23:49.380Z,38240
2016-03-27T10:24:49.384Z,63168
2016-03-27T10:25:49.354Z,36416
2016-03-27T10:26:49.356Z,33920
2016-03-27T10:27:49.345Z,38176
2016-03-27T10:28:49.347Z,36672
2016-03-27T10:29:49.350Z,29952
2016-03-27T10:30:49.320Z,24640
2016-03-27T10:31:49.323Z,26432
2016-03-27T10:32:49.325Z,30624
2016-03-27T10:33:49.158Z,27200
2016-03-27T10:34:49.300Z,27072
2016-03-27T10:35:49.287Z,29568
2016-03-27T10:36:49.322Z,28576
2016-03-27T10:37:49.293Z,28736
2016-03-27T10:38:49.264Z,29248
2016-03-27T10:39:49.267Z,33216
2016-03-27T10:40:49.269Z,35072
2016-03-27T10:41:49.241Z,70080
2016-03-27T10:42:49.244Z,26336
2016-03-27T10:43:49.230Z,23104
2016-03-27T10:44:49.218Z,27520
2016-03-27T10:45:49.221Z,31168
2016-03-27T10:46:49.224Z,32160
2016-03-27T10:47:49.196Z,112288
2016-03-27T10:48:49.198Z,75936
2016-03-27T10:49:49.184Z,42784
2016-03-27T10:50:49.187Z,39072
2016-03-27T10:51:49.190Z,117184
2016-03-27T10:52:49.161Z,117920
2016-03-27T10:53:49.179Z,116096
2016-03-27T10:54:49.151Z,112288
2016-03-27T10:55:49.138Z,122720
2016-03-27T10:56:49.156Z,118464
2016-03-27T10:57:49.143Z,37984
2016-03-27T10:58:49.131Z,44608
2016-03-27T10:59:49.133Z,31008
2016-03-27T11:00:49.120Z,42304
2016-03-27T11:01:49.108Z,43968
2016-03-27T11:02:49.110Z,51904
2016-03-27T11:03:49.114Z,37792
2016-03-27T11:04:49.116Z,34848
2016-03-27T11:05:49.102Z,32768
2016-03-27T11:06:49.090Z,72704
2016-03-27T11:07:49.092Z,119136
2016-03-27T11:08:49.063Z,113568
2016-03-27T11:09:49.082Z,107648
2016-03-27T11:10:49.069Z,82976
2016-03-27T11:11:49.056Z,100800
2016-03-27T11:12:49.074Z,99680
2016-03-27T11:13:49.046Z,60640
2016-03-27T11:14:49.064Z,32448
2016-03-27T11:15:49.051Z,30528
2016-03-27T11:16:49.023Z,28832
2016-03-27T11:17:49.026Z,31840
2016-03-27T11:18:49.012Z,32736
2016-03-27T11:19:49.047Z,31040
2016-03-27T11:20:49.018Z,32704
2016-03-27T11:21:49.004Z,30816
2016-03-27T11:22:49.024Z,30368
2016-03-27T11:23:49.010Z,33088
2016-03-27T11:24:49.012Z,45728
2016-03-27T11:25:48.984Z,31520
2016-03-27T11:26:48.971Z,26336
2016-03-27T11:27:48.990Z,23328
2016-03-27T11:28:48.961Z,26528
2016-03-27T11:29:48.964Z,28032
2016-03-27T11:30:48.967Z,24160
2016-03-27T11:31:48.938Z,21120
2016-03-27T11:32:48.956Z,19232
2016-03-27T11:33:48.944Z,20384
2016-03-27T11:34:48.947Z,22592
2016-03-27T11:35:48.918Z,23808
2016-03-27T11:36:48.748Z,29856
2016-03-27T11:37:48.750Z,31552
2016-03-27T11:38:48.894Z,26656
2016-03-27T11:39:48.928Z,21728
2016-03-27T11:40:48.884Z,18816
2016-03-27T11:41:48.871Z,16504
2016-03-27T11:42:48.874Z,13728
2016-03-27T11:43:48.846Z,13024
2016-03-27T11:44:48.848Z,14288
2016-03-27T11:45:48.851Z,16556
2016-03-27T11:46:48.822Z,16652
2016-03-27T11:47:48.840Z,14868
2016-03-27T11:48:48.812Z,13136
2016-03-27T11:49:48.830Z,11328
2016-03-27T11:50:48.802Z,10196
2016-03-27T11:51:48.788Z,9748
2016-03-27T11:52:48.791Z,12824
2016-03-27T11:53:48.763Z,18468
2016-03-27T11:54:48.781Z,25536
2016-03-27T11:55:48.737Z,34496
2016-03-27T11:56:48.740Z,41792
2016-03-27T11:57:48.602Z,45440
2016-03-27T11:58:48.714Z,40416
2016-03-27T11:59:48.717Z,35296
2016-03-27T12:00:48.720Z,30688
2016-03-27T12:01:48.722Z,30240
2016-03-27T12:02:48.677Z,29792
2016-03-27T12:03:48.790Z,27392
2016-03-27T12:04:48.667Z,25440
2016-03-27T12:05:48.686Z,31968
2016-03-27T12:06:48.658Z,40384
2016-03-27T12:07:48.660Z,54848
2016-03-27T12:08:48.631Z,99520
2016-03-27T12:09:48.650Z,115232
2016-03-27T12:10:48.637Z,110080
2016-03-27T12:11:48.624Z,105984
2016-03-27T12:12:48.627Z,100256
2016-03-27T12:13:48.613Z,98048
2016-03-27T12:14:48.600Z,85568
2016-03-27T12:15:48.618Z,93728
2016-03-27T12:16:48.606Z,100288
2016-03-27T12:17:48.593Z,103168
2016-03-27T12:18:48.690Z,23776
2016-03-27T12:19:48.582Z,63328
2016-03-27T12:20:48.571Z,116032
2016-03-27T12:21:48.573Z,114048
2016-03-27T12:22:48.559Z,94176
2016-03-27T12:23:48.547Z,108384
2016-03-27T12:24:48.565Z,105568
2016-03-27T12:25:48.536Z,106144
2016-03-27T12:26:48.554Z,29952
2016-03-27T12:27:48.542Z,99840
2016-03-27T12:28:48.545Z,26336
2016-03-27T12:29:48.547Z,30880
2016-03-27T12:30:48.378Z,46112
2016-03-27T12:31:48.537Z,33376
2016-03-27T12:32:48.539Z,27936
2016-03-27T12:33:49.011Z,29600
2016-03-27T12:34:48.529Z,69376
2016-03-27T12:35:48.517Z,44512
2016-03-27T12:36:48.519Z,38688
2016-03-27T12:37:48.522Z,40128
2016-03-27T12:38:48.509Z,66336
2016-03-27T12:39:48.511Z,116352
2016-03-27T12:40:48.530Z,103072
2016-03-27T12:41:48.501Z,95808
2016-03-27T12:42:48.505Z,91776
2016-03-27T12:43:48.522Z,88288
2016-03-27T12:44:48.509Z,68096
2016-03-27T12:45:48.480Z,83968
2016-03-27T12:46:48.515Z,95680
2016-03-27T12:47:48.502Z,95776
2016-03-27T12:48:48.598Z,93664
2016-03-27T12:49:48.492Z,89856
2016-03-27T12:50:48.479Z,88160
2016-03-27T12:51:48.465Z,91840
2016-03-27T12:52:48.485Z,95040
2016-03-27T12:53:48.471Z,99296
2016-03-27T12:54:48.490Z,96736
2016-03-27T12:55:48.476Z,92512
2016-03-27T12:56:48.463Z,90976
2016-03-27T12:57:48.466Z,62688
2016-03-27T12:58:48.468Z,92192
2016-03-27T12:59:48.471Z,27968
2016-03-27T13:00:48.474Z,89056
2016-03-27T13:01:48.461Z,75776
2016-03-27T13:02:48.464Z,82016
2016-03-27T13:03:48.498Z,20672
2016-03-27T13:04:48.454Z,26112
2016-03-27T13:05:48.456Z,37792
2016-03-27T13:06:48.475Z,59680
2016-03-27T13:07:48.461Z,41152
2016-03-27T13:08:48.449Z,103488
2016-03-27T13:09:48.452Z,37952
2016-03-27T13:10:48.455Z,40384
2016-03-27T13:11:48.425Z,80608
2016-03-27T13:12:48.428Z,59744
2016-03-27T13:13:48.431Z,27488
2016-03-27T13:14:48.418Z,27264
2016-03-27T13:15:48.452Z,31040
2016-03-27T13:16:48.439Z,28096
2016-03-27T13:17:48.427Z,27136
2016-03-27T13:18:48.414Z,28512
2016-03-27T13:19:48.416Z,32736
2016-03-27T13:20:48.419Z,31936
2016-03-27T13:21:48.405Z,29056
2016-03-27T13:22:48.407Z,26528
2016-03-27T13:23:48.411Z,65344
2016-03-27T13:24:48.382Z,81536
2016-03-27T13:25:48.401Z,102432
2016-03-27T13:26:48.388Z,78048
2016-03-27T13:27:48.391Z,90560
2016-03-27T13:28:48.378Z,78752
2016-03-27T13:29:48.395Z,78720
2016-03-27T13:30:48.368Z,77408
2016-03-27T13:31:48.370Z,77920
2016-03-27T13:32:48.357Z,76704
2016-03-27T13:33:48.360Z,74880
2016-03-27T13:34:48.378Z,75360
2016-03-27T13:35:48.350Z,76928
2016-03-27T13:36:48.367Z,77888
2016-03-27T13:37:48.355Z,79200
2016-03-27T13:38:48.358Z,80256
2016-03-27T13:39:48.345Z,80416